sensor_id;sensor_type;location;lat;lon;timestamp;pressure;altitude;pressure_sealevel;temperature;humidity
39699;BME280;25372;50.582;12.250;2022-09-13T00:05:02;99546.41;;;10.10;100.00
39699;BME280;25372;50.582;12.250;2022-09-13T00:15:22;99552.75;;;9.94;100.00
39699;BME280;25372;50.582;12.250;2022-09-13T00:25:45;99518.22;;;10.02;100.00
39699;BME280;25372;50.582;12.250;2022-09-13T00:36:07;99521.78;;;9.94;100.00
39699;BME280;25372;50.582;12.250;2022-09-13T00:46:34;99495.13;;;9.74;100.00
39699;BME280;25372;50.582;12.250;2022-09-13T00:56:58;99489.63;;;9.76;100.00
39699;BME280;25372;50.582;12.250;2022-09-13T01:07:23;99492.50;;;9.96;100.00
39699;BME280;25372;50.582;12.250;2022-09-13T01:17:44;99479.28;;;9.96;100.00
39699;BME280;25372;50.582;12.250;2022-09-13T01:28:25;99450.75;;;9.76;100.00
39699;BME280;25372;50.582;12.250;2022-09-13T01:38:58;99445.47;;;9.76;100.00
39699;BME280;25372;50.582;12.250;2022-09-13T01:49:29;99407.78;;;9.53;100.00
39699;BME280;25372;50.582;12.250;2022-09-13T01:59:58;99404.38;;;9.59;100.00
39699;BME280;25372;50.582;12.250;2022-09-13T02:10:23;99398.38;;;9.50;100.00
39699;BME280;25372;50.582;12.250;2022-09-13T02:20:49;99421.25;;;9.58;100.00
39699;BME280;25372;50.582;12.250;2022-09-13T02:31:11;99421.44;;;9.56;100.00
39699;BME280;25372;50.582;12.250;2022-09-13T02:41:42;99407.50;;;9.48;100.00
39699;BME280;25372;50.582;12.250;2022-09-13T02:52:11;99404.88;;;9.69;100.00
39699;BME280;25372;50.582;12.250;2022-09-13T03:02:37;99403.22;;;9.68;100.00
39699;BME280;25372;50.582;12.250;2022-09-13T03:13:31;99396.00;;;9.55;100.00
39699;BME280;25372;50.582;12.250;2022-09-13T03:24:03;99361.34;;;9.50;100.00
39699;BME280;25372;50.582;12.250;2022-09-13T03:34:32;99359.78;;;9.77;100.00
39699;BME280;25372;50.582;12.250;2022-09-13T03:44:58;99353.28;;;9.80;100.00
39699;BME280;25372;50.582;12.250;2022-09-13T03:55:20;99333.81;;;9.66;100.00
39699;BME280;25372;50.582;12.250;2022-09-13T04:05:44;99361.91;;;9.67;100.00
39699;BME280;25372;50.582;12.250;2022-09-13T04:16:06;99345.75;;;9.55;100.00
39699;BME280;25372;50.582;12.250;2022-09-13T04:26:29;99353.09;;;9.38;100.00
39699;BME280;25372;50.582;12.250;2022-09-13T04:36:51;99348.47;;;9.25;100.00
39699;BME280;25372;50.582;12.250;2022-09-13T04:47:13;99351.56;;;9.51;100.00
39699;BME280;25372;50.582;12.250;2022-09-13T04:57:34;99348.34;;;9.77;100.00
39699;BME280;25372;50.582;12.250;2022-09-13T05:07:56;99334.78;;;9.87;100.00
39699;BME280;25372;50.582;12.250;2022-09-13T05:18:17;99288.53;;;9.83;100.00
39699;BME280;25372;50.582;12.250;2022-09-13T05:28:39;99312.22;;;10.48;100.00
39699;BME280;25372;50.582;12.250;2022-09-13T05:38:59;99326.13;;;11.05;100.00
39699;BME280;25372;50.582;12.250;2022-09-13T05:49:22;99315.59;;;11.51;100.00
39699;BME280;25372;50.582;12.250;2022-09-13T05:59:43;99285.81;;;11.63;100.00
39699;BME280;25372;50.582;12.250;2022-09-13T06:10:05;99283.13;;;11.90;100.00
39699;BME280;25372;50.582;12.250;2022-09-13T06:20:26;99280.97;;;13.04;100.00
39699;BME280;25372;50.582;12.250;2022-09-13T06:30:48;99261.25;;;13.75;97.30
39699;BME280;25372;50.582;12.250;2022-09-13T06:41:11;99265.81;;;14.12;98.81
39699;BME280;25372;50.582;12.250;2022-09-13T06:51:34;99277.31;;;15.29;89.96
39699;BME280;25372;50.582;12.250;2022-09-13T07:01:55;99275.66;;;15.58;84.96
39699;BME280;25372;50.582;12.250;2022-09-13T07:12:17;99260.88;;;16.38;84.16
39699;BME280;25372;50.582;12.250;2022-09-13T07:22:38;99234.94;;;17.08;83.55
39699;BME280;25372;50.582;12.250;2022-09-13T07:33:00;99248.59;;;17.92;81.13
39699;BME280;25372;50.582;12.250;2022-09-13T07:43:21;99255.31;;;17.27;77.83
39699;BME280;25372;50.582;12.250;2022-09-13T07:53:44;99254.13;;;16.36;84.80
39699;BME280;25372;50.582;12.250;2022-09-13T08:04:07;99275.25;;;15.43;94.87
39699;BME280;25372;50.582;12.250;2022-09-13T08:14:29;99290.22;;;15.02;100.00
39699;BME280;25372;50.582;12.250;2022-09-13T08:24:50;99277.44;;;15.88;98.73
39699;BME280;25372;50.582;12.250;2022-09-13T08:35:12;99307.91;;;17.16;87.33
39699;BME280;25372;50.582;12.250;2022-09-13T08:45:33;99291.25;;;16.85;93.12
39699;BME280;25372;50.582;12.250;2022-09-13T08:56:01;99254.84;;;17.13;88.12
39699;BME280;25372;50.582;12.250;2022-09-13T09:06:23;99277.56;;;17.27;91.58
39699;BME280;25372;50.582;12.250;2022-09-13T09:16:47;99262.22;;;17.73;89.65
39699;BME280;25372;50.582;12.250;2022-09-13T09:27:13;99248.22;;;18.44;86.56
39699;BME280;25372;50.582;12.250;2022-09-13T09:37:36;99246.44;;;19.64;76.80
39699;BME280;25372;50.582;12.250;2022-09-13T09:48:01;99241.66;;;20.14;72.93
39699;BME280;25372;50.582;12.250;2022-09-13T09:58:40;99219.03;;;20.10;71.29
39699;BME280;25372;50.582;12.250;2022-09-13T10:09:04;99208.03;;;20.12;70.27
39699;BME280;25372;50.582;12.250;2022-09-13T10:19:26;99187.56;;;21.41;65.48
39699;BME280;25372;50.582;12.250;2022-09-13T10:29:49;99172.25;;;22.17;63.18
39699;BME280;25372;50.582;12.250;2022-09-13T10:40:22;99174.41;;;22.25;61.83
39699;BME280;25372;50.582;12.250;2022-09-13T10:51:00;99151.16;;;20.71;65.86
39699;BME280;25372;50.582;12.250;2022-09-13T11:01:37;99162.50;;;20.89;65.60
39699;BME280;25372;50.582;12.250;2022-09-13T11:12:07;99151.97;;;21.34;63.27
39699;BME280;25372;50.582;12.250;2022-09-13T11:22:53;99152.00;;;21.23;61.29
39699;BME280;25372;50.582;12.250;2022-09-13T11:33:29;99138.22;;;21.40;62.78
39699;BME280;25372;50.582;12.250;2022-09-13T11:44:09;99127.13;;;22.33;60.68
39699;BME280;25372;50.582;12.250;2022-09-13T11:54:47;99116.06;;;22.29;61.66
39699;BME280;25372;50.582;12.250;2022-09-13T12:05:15;99053.75;;;21.71;59.43
39699;BME280;25372;50.582;12.250;2022-09-13T12:15:41;99122.75;;;21.87;60.13
39699;BME280;25372;50.582;12.250;2022-09-13T12:26:08;99100.47;;;22.16;55.21
39699;BME280;25372;50.582;12.250;2022-09-13T12:36:44;99101.09;;;22.53;54.68
39699;BME280;25372;50.582;12.250;2022-09-13T12:58:04;99072.50;;;23.40;54.96
39699;BME280;25372;50.582;12.250;2022-09-13T13:08:32;99069.78;;;23.45;52.72
39699;BME280;25372;50.582;12.250;2022-09-13T13:18:55;99065.28;;;23.59;52.99
39699;BME280;25372;50.582;12.250;2022-09-13T13:29:18;99060.44;;;23.56;54.51
39699;BME280;25372;50.582;12.250;2022-09-13T13:39:43;99057.66;;;22.84;51.92
39699;BME280;25372;50.582;12.250;2022-09-13T13:50:13;99011.06;;;23.45;52.49
39699;BME280;25372;50.582;12.250;2022-09-13T14:00:35;99057.78;;;23.27;54.32
39699;BME280;25372;50.582;12.250;2022-09-13T14:11:15;99044.91;;;22.89;55.00
39699;BME280;25372;50.582;12.250;2022-09-13T14:21:40;99038.63;;;22.65;54.74
39699;BME280;25372;50.582;12.250;2022-09-13T14:32:05;99036.22;;;22.63;54.64
39699;BME280;25372;50.582;12.250;2022-09-13T14:42:42;99028.44;;;22.11;55.42
39699;BME280;25372;50.582;12.250;2022-09-13T14:53:06;99020.53;;;21.81;56.99
39699;BME280;25372;50.582;12.250;2022-09-13T15:03:28;99007.66;;;21.67;60.22
39699;BME280;25372;50.582;12.250;2022-09-13T15:14:01;98998.59;;;21.37;59.93
39699;BME280;25372;50.582;12.250;2022-09-13T15:24:26;99023.09;;;21.51;60.29
39699;BME280;25372;50.582;12.250;2022-09-13T15:34:50;99030.53;;;21.80;61.42
39699;BME280;25372;50.582;12.250;2022-09-13T15:45:11;99009.31;;;21.58;60.70
39699;BME280;25372;50.582;12.250;2022-09-13T15:55:33;99002.88;;;21.49;62.14
39699;BME280;25372;50.582;12.250;2022-09-13T16:05:54;99009.72;;;21.15;63.14
39699;BME280;25372;50.582;12.250;2022-09-13T16:16:16;98992.75;;;21.10;61.65
39699;BME280;25372;50.582;12.250;2022-09-13T16:26:38;98993.34;;;20.91;63.02
39699;BME280;25372;50.582;12.250;2022-09-13T16:37:00;99004.66;;;20.62;65.46
39699;BME280;25372;50.582;12.250;2022-09-13T16:47:22;99002.50;;;20.28;67.49
39699;BME280;25372;50.582;12.250;2022-09-13T16:57:44;99002.50;;;20.18;65.70
39699;BME280;25372;50.582;12.250;2022-09-13T17:08:08;98998.94;;;19.81;69.02
39699;BME280;25372;50.582;12.250;2022-09-13T17:18:30;98986.41;;;19.34;72.15
39699;BME280;25372;50.582;12.250;2022-09-13T17:28:51;98975.00;;;18.69;73.48
39699;BME280;25372;50.582;12.250;2022-09-13T17:39:13;98986.19;;;18.60;75.67
39699;BME280;25372;50.582;12.250;2022-09-13T17:49:34;98990.00;;;18.64;74.37
39699;BME280;25372;50.582;12.250;2022-09-13T17:59:56;98984.59;;;18.00;74.91
39699;BME280;25372;50.582;12.250;2022-09-13T18:10:16;98965.72;;;17.40;77.86
39699;BME280;25372;50.582;12.250;2022-09-13T18:20:43;98970.00;;;16.97;80.63
39699;BME280;25372;50.582;12.250;2022-09-13T18:31:06;98972.78;;;16.68;81.60
39699;BME280;25372;50.582;12.250;2022-09-13T18:41:31;98974.94;;;16.71;81.83
39699;BME280;25372;50.582;12.250;2022-09-13T18:51:52;98983.00;;;16.88;80.00
39699;BME280;25372;50.582;12.250;2022-09-13T19:02:15;98987.75;;;17.25;77.09
39699;BME280;25372;50.582;12.250;2022-09-13T19:12:36;98985.72;;;17.54;74.06
39699;BME280;25372;50.582;12.250;2022-09-13T19:22:57;98999.34;;;17.31;74.44
39699;BME280;25372;50.582;12.250;2022-09-13T19:33:20;99016.88;;;17.60;73.50
39699;BME280;25372;50.582;12.250;2022-09-13T19:43:43;99023.94;;;17.05;75.86
39699;BME280;25372;50.582;12.250;2022-09-13T19:54:07;99012.66;;;16.52;80.28
39699;BME280;25372;50.582;12.250;2022-09-13T20:04:31;99022.22;;;16.31;82.56
39699;BME280;25372;50.582;12.250;2022-09-13T20:14:52;99023.50;;;16.00;85.11
39699;BME280;25372;50.582;12.250;2022-09-13T20:25:14;99020.22;;;15.81;87.91
39699;BME280;25372;50.582;12.250;2022-09-13T20:35:35;99021.38;;;15.73;88.63
39699;BME280;25372;50.582;12.250;2022-09-13T20:45:58;99025.88;;;15.44;92.88
39699;BME280;25372;50.582;12.250;2022-09-13T20:56:20;99030.66;;;15.30;94.93
39699;BME280;25372;50.582;12.250;2022-09-13T21:06:43;99018.25;;;15.24;95.93
39699;BME280;25372;50.582;12.250;2022-09-13T21:17:17;99019.44;;;15.16;96.79
39699;BME280;25372;50.582;12.250;2022-09-13T21:27:39;99024.25;;;15.43;96.32
39699;BME280;25372;50.582;12.250;2022-09-13T21:38:03;99031.66;;;15.52;95.99
39699;BME280;25372;50.582;12.250;2022-09-13T21:48:26;99035.97;;;15.42;96.08
39699;BME280;25372;50.582;12.250;2022-09-13T21:58:49;99031.03;;;15.62;95.03
39699;BME280;25372;50.582;12.250;2022-09-13T22:09:13;99038.06;;;15.40;96.02
39699;BME280;25372;50.582;12.250;2022-09-13T22:19:34;99047.25;;;15.20;96.77
39699;BME280;25372;50.582;12.250;2022-09-13T22:29:56;99053.19;;;15.22;98.19
39699;BME280;25372;50.582;12.250;2022-09-13T22:40:16;99046.81;;;15.23;97.32
39699;BME280;25372;50.582;12.250;2022-09-13T22:50:38;99061.53;;;14.78;100.00
39699;BME280;25372;50.582;12.250;2022-09-13T23:01:04;99060.69;;;14.66;100.00
39699;BME280;25372;50.582;12.250;2022-09-13T23:11:28;99058.06;;;15.02;98.20
39699;BME280;25372;50.582;12.250;2022-09-13T23:21:51;99052.97;;;14.88;97.30
39699;BME280;25372;50.582;12.250;2022-09-13T23:32:13;99050.63;;;14.80;100.00
39699;BME280;25372;50.582;12.250;2022-09-13T23:42:34;99047.16;;;14.79;99.85
39699;BME280;25372;50.582;12.250;2022-09-13T23:52:56;99038.78;;;14.76;100.00
